sensor_id;sensor_type;location;lat;lon;timestamp;temperature;humidity
4374;DHT22;2201;51.100;6.814;2023-04-06T00:00:45;3.90;98.20
4374;DHT22;2201;51.100;6.814;2023-04-06T00:03:13;3.80;98.20
4374;DHT22;2201;51.100;6.814;2023-04-06T00:05:40;3.80;98.20
4374;DHT22;2201;51.100;6.814;2023-04-06T00:08:07;3.80;98.20
4374;DHT22;2201;51.100;6.814;2023-04-06T00:10:34;3.70;98.20
4374;DHT22;2201;51.100;6.814;2023-04-06T00:13:01;3.70;98.20
4374;DHT22;2201;51.100;6.814;2023-04-06T00:15:28;3.70;98.20
4374;DHT22;2201;51.100;6.814;2023-04-06T00:17:55;3.70;98.20
4374;DHT22;2201;51.100;6.814;2023-04-06T00:20:23;3.70;98.20
4374;DHT22;2201;51.100;6.814;2023-04-06T00:22:50;3.70;98.20
4374;DHT22;2201;51.100;6.814;2023-04-06T00:25:17;3.70;98.20
4374;DHT22;2201;51.100;6.814;2023-04-06T00:27:45;3.70;98.20
4374;DHT22;2201;51.100;6.814;2023-04-06T00:30:12;3.70;98.20
4374;DHT22;2201;51.100;6.814;2023-04-06T00:32:39;3.70;98.20
4374;DHT22;2201;51.100;6.814;2023-04-06T00:35:06;3.60;98.20
4374;DHT22;2201;51.100;6.814;2023-04-06T00:37:34;3.60;98.20
4374;DHT22;2201;51.100;6.814;2023-04-06T00:40:02;3.60;98.20
4374;DHT22;2201;51.100;6.814;2023-04-06T00:42:29;3.60;98.20
4374;DHT22;2201;51.100;6.814;2023-04-06T00:44:58;3.60;98.20
4374;DHT22;2201;51.100;6.814;2023-04-06T00:47:25;3.50;98.20
4374;DHT22;2201;51.100;6.814;2023-04-06T00:49:53;3.50;98.20
4374;DHT22;2201;51.100;6.814;2023-04-06T00:52:20;3.50;98.20
4374;DHT22;2201;51.100;6.814;2023-04-06T00:54:48;3.50;98.20
4374;DHT22;2201;51.100;6.814;2023-04-06T00:57:16;3.50;98.20
4374;DHT22;2201;51.100;6.814;2023-04-06T00:59:43;3.50;98.20
4374;DHT22;2201;51.100;6.814;2023-04-06T01:02:10;3.50;98.20
4374;DHT22;2201;51.100;6.814;2023-04-06T01:04:37;3.50;98.20
4374;DHT22;2201;51.100;6.814;2023-04-06T01:07:04;3.50;98.20
4374;DHT22;2201;51.100;6.814;2023-04-06T01:09:31;3.50;98.20
4374;DHT22;2201;51.100;6.814;2023-04-06T01:11:59;3.50;98.20
4374;DHT22;2201;51.100;6.814;2023-04-06T01:14:26;3.50;98.20
4374;DHT22;2201;51.100;6.814;2023-04-06T01:16:53;3.50;98.20
4374;DHT22;2201;51.100;6.814;2023-04-06T01:19:22;3.40;98.20
4374;DHT22;2201;51.100;6.814;2023-04-06T01:21:49;3.40;98.20
4374;DHT22;2201;51.100;6.814;2023-04-06T01:24:20;3.40;98.20
4374;DHT22;2201;51.100;6.814;2023-04-06T01:26:47;3.40;98.20
4374;DHT22;2201;51.100;6.814;2023-04-06T01:29:14;3.40;98.20
4374;DHT22;2201;51.100;6.814;2023-04-06T01:31:41;3.40;98.20
4374;DHT22;2201;51.100;6.814;2023-04-06T01:34:07;3.30;98.20
4374;DHT22;2201;51.100;6.814;2023-04-06T01:36:34;3.40;98.20
4374;DHT22;2201;51.100;6.814;2023-04-06T01:39:01;3.40;98.20
4374;DHT22;2201;51.100;6.814;2023-04-06T01:41:29;3.40;98.20
4374;DHT22;2201;51.100;6.814;2023-04-06T01:43:56;3.30;98.20
4374;DHT22;2201;51.100;6.814;2023-04-06T01:46:23;3.30;98.20
4374;DHT22;2201;51.100;6.814;2023-04-06T01:48:50;3.30;98.20
4374;DHT22;2201;51.100;6.814;2023-04-06T01:51:17;3.30;98.20
4374;DHT22;2201;51.100;6.814;2023-04-06T01:53:44;3.30;98.20
4374;DHT22;2201;51.100;6.814;2023-04-06T01:56:11;3.30;98.20
4374;DHT22;2201;51.100;6.814;2023-04-06T01:58:39;3.30;98.20
4374;DHT22;2201;51.100;6.814;2023-04-06T02:01:06;3.30;98.20
4374;DHT22;2201;51.100;6.814;2023-04-06T02:03:33;3.20;98.20
4374;DHT22;2201;51.100;6.814;2023-04-06T02:06:00;3.20;98.20
4374;DHT22;2201;51.100;6.814;2023-04-06T02:08:27;3.20;98.20
4374;DHT22;2201;51.100;6.814;2023-04-06T02:10:54;3.10;98.20
4374;DHT22;2201;51.100;6.814;2023-04-06T02:13:21;3.10;98.20
4374;DHT22;2201;51.100;6.814;2023-04-06T02:15:49;3.10;98.20
4374;DHT22;2201;51.100;6.814;2023-04-06T02:18:16;3.00;98.20
4374;DHT22;2201;51.100;6.814;2023-04-06T02:20:43;3.00;98.20
4374;DHT22;2201;51.100;6.814;2023-04-06T02:23:11;3.10;98.20
4374;DHT22;2201;51.100;6.814;2023-04-06T02:25:38;3.10;98.20
4374;DHT22;2201;51.100;6.814;2023-04-06T02:28:05;3.00;98.20
4374;DHT22;2201;51.100;6.814;2023-04-06T02:30:32;3.00;98.20
4374;DHT22;2201;51.100;6.814;2023-04-06T02:33:01;3.00;98.20
4374;DHT22;2201;51.100;6.814;2023-04-06T02:35:28;3.00;98.20
4374;DHT22;2201;51.100;6.814;2023-04-06T02:37:55;3.00;98.20
4374;DHT22;2201;51.100;6.814;2023-04-06T02:40:22;3.00;98.20
4374;DHT22;2201;51.100;6.814;2023-04-06T02:42:49;3.00;98.20
4374;DHT22;2201;51.100;6.814;2023-04-06T02:45:16;3.00;98.20
4374;DHT22;2201;51.100;6.814;2023-04-06T02:47:43;2.90;98.20
4374;DHT22;2201;51.100;6.814;2023-04-06T02:50:11;2.90;98.20
4374;DHT22;2201;51.100;6.814;2023-04-06T02:52:38;2.90;98.20
4374;DHT22;2201;51.100;6.814;2023-04-06T02:55:06;2.90;98.20
4374;DHT22;2201;51.100;6.814;2023-04-06T02:57:33;2.90;98.20
4374;DHT22;2201;51.100;6.814;2023-04-06T03:00:00;3.00;98.20
4374;DHT22;2201;51.100;6.814;2023-04-06T03:02:27;3.00;98.20
4374;DHT22;2201;51.100;6.814;2023-04-06T03:04:53;3.00;98.20
4374;DHT22;2201;51.100;6.814;2023-04-06T03:07:22;3.00;98.20
4374;DHT22;2201;51.100;6.814;2023-04-06T03:09:49;3.00;98.20
4374;DHT22;2201;51.100;6.814;2023-04-06T03:12:16;3.00;98.20
4374;DHT22;2201;51.100;6.814;2023-04-06T03:14:43;3.00;98.20
4374;DHT22;2201;51.100;6.814;2023-04-06T03:17:09;3.00;98.20
4374;DHT22;2201;51.100;6.814;2023-04-06T03:19:36;3.00;98.20
4374;DHT22;2201;51.100;6.814;2023-04-06T03:22:03;3.00;98.20
4374;DHT22;2201;51.100;6.814;2023-04-06T03:24:32;3.00;98.20
4374;DHT22;2201;51.100;6.814;2023-04-06T03:26:58;3.00;98.20
4374;DHT22;2201;51.100;6.814;2023-04-06T03:29:25;3.00;98.20
4374;DHT22;2201;51.100;6.814;2023-04-06T03:31:52;3.00;98.20
4374;DHT22;2201;51.100;6.814;2023-04-06T03:34:19;3.00;98.20
4374;DHT22;2201;51.100;6.814;2023-04-06T03:36:46;3.00;98.20
4374;DHT22;2201;51.100;6.814;2023-04-06T03:39:13;3.00;98.20
4374;DHT22;2201;51.100;6.814;2023-04-06T03:41:41;2.90;98.20
4374;DHT22;2201;51.100;6.814;2023-04-06T03:44:09;2.90;98.20
4374;DHT22;2201;51.100;6.814;2023-04-06T03:46:36;2.90;98.20
4374;DHT22;2201;51.100;6.814;2023-04-06T03:49:03;2.90;98.20
4374;DHT22;2201;51.100;6.814;2023-04-06T03:51:30;2.90;98.20
4374;DHT22;2201;51.100;6.814;2023-04-06T03:53:57;2.80;98.20
4374;DHT22;2201;51.100;6.814;2023-04-06T03:56:24;2.80;98.20
4374;DHT22;2201;51.100;6.814;2023-04-06T03:58:52;2.80;98.20
4374;DHT22;2201;51.100;6.814;2023-04-06T04:01:19;2.80;98.20
4374;DHT22;2201;51.100;6.814;2023-04-06T04:03:46;2.80;98.20
4374;DHT22;2201;51.100;6.814;2023-04-06T04:06:13;2.80;98.20
4374;DHT22;2201;51.100;6.814;2023-04-06T04:08:39;2.80;98.20
4374;DHT22;2201;51.100;6.814;2023-04-06T04:11:06;2.80;98.20
4374;DHT22;2201;51.100;6.814;2023-04-06T04:13:33;2.80;98.20
4374;DHT22;2201;51.100;6.814;2023-04-06T04:16:02;2.80;98.20
4374;DHT22;2201;51.100;6.814;2023-04-06T04:18:28;2.80;98.20
4374;DHT22;2201;51.100;6.814;2023-04-06T04:20:55;2.80;98.20
4374;DHT22;2201;51.100;6.814;2023-04-06T04:23:22;2.80;98.20
4374;DHT22;2201;51.100;6.814;2023-04-06T04:25:49;2.80;98.20
4374;DHT22;2201;51.100;6.814;2023-04-06T04:28:16;2.80;98.20
4374;DHT22;2201;51.100;6.814;2023-04-06T04:30:43;2.80;98.20
4374;DHT22;2201;51.100;6.814;2023-04-06T04:33:11;2.70;98.20
4374;DHT22;2201;51.100;6.814;2023-04-06T04:35:38;2.70;98.20
4374;DHT22;2201;51.100;6.814;2023-04-06T04:38:05;2.70;98.20
4374;DHT22;2201;51.100;6.814;2023-04-06T04:40:32;2.70;98.20
4374;DHT22;2201;51.100;6.814;2023-04-06T04:42:59;2.70;98.20
4374;DHT22;2201;51.100;6.814;2023-04-06T04:45:26;2.70;98.20
4374;DHT22;2201;51.100;6.814;2023-04-06T04:47:53;2.70;98.20
4374;DHT22;2201;51.100;6.814;2023-04-06T04:50:21;2.70;98.20
4374;DHT22;2201;51.100;6.814;2023-04-06T04:52:48;2.80;98.20
4374;DHT22;2201;51.100;6.814;2023-04-06T04:55:15;2.80;98.20
4374;DHT22;2201;51.100;6.814;2023-04-06T04:57:47;2.80;98.20
4374;DHT22;2201;51.100;6.814;2023-04-06T05:00:14;2.80;98.20
4374;DHT22;2201;51.100;6.814;2023-04-06T05:02:41;2.80;98.20
4374;DHT22;2201;51.100;6.814;2023-04-06T05:05:08;2.80;98.20
4374;DHT22;2201;51.100;6.814;2023-04-06T05:07:37;2.80;98.20
4374;DHT22;2201;51.100;6.814;2023-04-06T05:10:04;2.90;98.20
4374;DHT22;2201;51.100;6.814;2023-04-06T05:12:32;2.90;98.20
4374;DHT22;2201;51.100;6.814;2023-04-06T05:14:59;2.90;98.20
4374;DHT22;2201;51.100;6.814;2023-04-06T05:17:26;2.90;98.20
4374;DHT22;2201;51.100;6.814;2023-04-06T05:19:53;3.00;98.20
4374;DHT22;2201;51.100;6.814;2023-04-06T05:22:20;3.00;98.20
4374;DHT22;2201;51.100;6.814;2023-04-06T05:24:48;3.00;98.20
4374;DHT22;2201;51.100;6.814;2023-04-06T05:27:15;3.10;98.20
4374;DHT22;2201;51.100;6.814;2023-04-06T05:29:42;3.10;98.20
4374;DHT22;2201;51.100;6.814;2023-04-06T05:32:09;3.10;98.20
4374;DHT22;2201;51.100;6.814;2023-04-06T05:34:37;3.20;98.20
4374;DHT22;2201;51.100;6.814;2023-04-06T05:37:04;3.20;98.20
4374;DHT22;2201;51.100;6.814;2023-04-06T05:39:31;3.20;98.20
4374;DHT22;2201;51.100;6.814;2023-04-06T05:42:03;3.30;98.20
4374;DHT22;2201;51.100;6.814;2023-04-06T05:44:30;3.30;98.20
4374;DHT22;2201;51.100;6.814;2023-04-06T05:46:57;3.30;98.20
4374;DHT22;2201;51.100;6.814;2023-04-06T05:49:24;3.40;98.20
4374;DHT22;2201;51.100;6.814;2023-04-06T05:51:51;3.40;98.20
4374;DHT22;2201;51.100;6.814;2023-04-06T05:54:18;3.50;98.20
4374;DHT22;2201;51.100;6.814;2023-04-06T05:56:44;3.60;98.20
4374;DHT22;2201;51.100;6.814;2023-04-06T05:59:13;3.70;98.20
4374;DHT22;2201;51.100;6.814;2023-04-06T06:01:40;3.80;98.20
4374;DHT22;2201;51.100;6.814;2023-04-06T06:04:07;3.90;98.20
4374;DHT22;2201;51.100;6.814;2023-04-06T06:06:34;4.10;98.20
4374;DHT22;2201;51.100;6.814;2023-04-06T06:09:02;4.30;98.20
4374;DHT22;2201;51.100;6.814;2023-04-06T06:11:29;4.40;98.20
4374;DHT22;2201;51.100;6.814;2023-04-06T06:13:56;4.60;98.10
4374;DHT22;2201;51.100;6.814;2023-04-06T06:16:24;4.80;97.50
4374;DHT22;2201;51.100;6.814;2023-04-06T06:18:51;4.90;96.40
4374;DHT22;2201;51.100;6.814;2023-04-06T06:21:18;5.00;95.20
4374;DHT22;2201;51.100;6.814;2023-04-06T06:23:45;5.20;95.40
4374;DHT22;2201;51.100;6.814;2023-04-06T06:26:13;5.30;94.40
4374;DHT22;2201;51.100;6.814;2023-04-06T06:28:40;5.40;94.20
4374;DHT22;2201;51.100;6.814;2023-04-06T06:31:07;5.60;94.00
4374;DHT22;2201;51.100;6.814;2023-04-06T06:33:35;5.80;93.50
4374;DHT22;2201;51.100;6.814;2023-04-06T06:36:02;6.00;93.40
4374;DHT22;2201;51.100;6.814;2023-04-06T06:38:29;6.20;91.60
4374;DHT22;2201;51.100;6.814;2023-04-06T06:40:56;6.30;91.90
4374;DHT22;2201;51.100;6.814;2023-04-06T06:43:23;6.50;90.70
4374;DHT22;2201;51.100;6.814;2023-04-06T06:45:49;6.60;90.00
4374;DHT22;2201;51.100;6.814;2023-04-06T06:48:16;6.80;89.70
4374;DHT22;2201;51.100;6.814;2023-04-06T06:50:47;6.90;89.00
4374;DHT22;2201;51.100;6.814;2023-04-06T06:53:14;6.90;88.40
4374;DHT22;2201;51.100;6.814;2023-04-06T06:55:41;7.00;88.60
4374;DHT22;2201;51.100;6.814;2023-04-06T06:58:09;7.10;88.30
4374;DHT22;2201;51.100;6.814;2023-04-06T07:00:36;7.20;87.60
4374;DHT22;2201;51.100;6.814;2023-04-06T07:03:03;7.30;88.40
4374;DHT22;2201;51.100;6.814;2023-04-06T07:05:30;7.50;87.80
4374;DHT22;2201;51.100;6.814;2023-04-06T07:07:58;7.70;87.20
4374;DHT22;2201;51.100;6.814;2023-04-06T07:10:26;7.90;86.90
4374;DHT22;2201;51.100;6.814;2023-04-06T07:12:53;8.00;86.50
4374;DHT22;2201;51.100;6.814;2023-04-06T07:15:20;8.30;86.70
4374;DHT22;2201;51.100;6.814;2023-04-06T07:17:47;8.60;86.10
4374;DHT22;2201;51.100;6.814;2023-04-06T07:20:14;8.80;84.90
4374;DHT22;2201;51.100;6.814;2023-04-06T07:22:43;8.90;84.50
4374;DHT22;2201;51.100;6.814;2023-04-06T07:25:11;9.00;84.30
4374;DHT22;2201;51.100;6.814;2023-04-06T07:27:38;9.10;83.60
4374;DHT22;2201;51.100;6.814;2023-04-06T07:30:06;9.00;83.70
4374;DHT22;2201;51.100;6.814;2023-04-06T07:32:33;8.90;83.60
4374;DHT22;2201;51.100;6.814;2023-04-06T07:35:01;8.90;84.10
4374;DHT22;2201;51.100;6.814;2023-04-06T07:37:28;8.80;83.30
4374;DHT22;2201;51.100;6.814;2023-04-06T07:39:55;8.70;84.30
4374;DHT22;2201;51.100;6.814;2023-04-06T07:42:23;8.70;83.90
4374;DHT22;2201;51.100;6.814;2023-04-06T07:44:50;8.50;84.30
4374;DHT22;2201;51.100;6.814;2023-04-06T07:47:17;8.50;84.40
4374;DHT22;2201;51.100;6.814;2023-04-06T07:52:16;8.50;84.60
4374;DHT22;2201;51.100;6.814;2023-04-06T07:54:43;8.50;85.30
4374;DHT22;2201;51.100;6.814;2023-04-06T07:57:10;8.70;85.20
4374;DHT22;2201;51.100;6.814;2023-04-06T07:59:38;8.80;84.60
4374;DHT22;2201;51.100;6.814;2023-04-06T08:02:05;9.00;83.90
4374;DHT22;2201;51.100;6.814;2023-04-06T08:04:32;9.10;84.10
4374;DHT22;2201;51.100;6.814;2023-04-06T08:06:59;9.20;83.60
4374;DHT22;2201;51.100;6.814;2023-04-06T08:09:26;9.30;83.30
4374;DHT22;2201;51.100;6.814;2023-04-06T08:11:53;9.40;82.70
4374;DHT22;2201;51.100;6.814;2023-04-06T08:14:20;9.60;83.00
4374;DHT22;2201;51.100;6.814;2023-04-06T08:16:48;9.80;83.20
4374;DHT22;2201;51.100;6.814;2023-04-06T08:19:15;10.10;81.80
4374;DHT22;2201;51.100;6.814;2023-04-06T08:21:42;10.40;80.60
4374;DHT22;2201;51.100;6.814;2023-04-06T08:24:09;10.50;80.40
4374;DHT22;2201;51.100;6.814;2023-04-06T08:26:36;10.70;80.50
4374;DHT22;2201;51.100;6.814;2023-04-06T08:29:03;10.70;79.50
4374;DHT22;2201;51.100;6.814;2023-04-06T08:31:33;10.80;79.40
4374;DHT22;2201;51.100;6.814;2023-04-06T08:34:01;10.80;79.10
4374;DHT22;2201;51.100;6.814;2023-04-06T08:36:28;10.80;79.50
4374;DHT22;2201;51.100;6.814;2023-04-06T08:38:56;10.90;79.60
4374;DHT22;2201;51.100;6.814;2023-04-06T08:41:23;11.10;79.80
4374;DHT22;2201;51.100;6.814;2023-04-06T08:43:59;11.20;78.40
4374;DHT22;2201;51.100;6.814;2023-04-06T08:46:28;11.40;78.40
4374;DHT22;2201;51.100;6.814;2023-04-06T08:48:56;11.60;78.80
4374;DHT22;2201;51.100;6.814;2023-04-06T08:51:25;11.90;77.40
4374;DHT22;2201;51.100;6.814;2023-04-06T08:53:53;12.10;76.70
4374;DHT22;2201;51.100;6.814;2023-04-06T08:56:21;12.20;76.00
4374;DHT22;2201;51.100;6.814;2023-04-06T08:58:49;12.40;76.40
4374;DHT22;2201;51.100;6.814;2023-04-06T09:01:20;12.70;76.20
4374;DHT22;2201;51.100;6.814;2023-04-06T09:03:49;12.80;75.40
4374;DHT22;2201;51.100;6.814;2023-04-06T09:06:16;12.80;74.30
4374;DHT22;2201;51.100;6.814;2023-04-06T09:08:45;12.70;74.20
4374;DHT22;2201;51.100;6.814;2023-04-06T09:11:12;12.80;74.80
4374;DHT22;2201;51.100;6.814;2023-04-06T09:13:47;12.90;74.40
4374;DHT22;2201;51.100;6.814;2023-04-06T09:16:15;13.00;74.50
4374;DHT22;2201;51.100;6.814;2023-04-06T09:18:43;13.00;73.50
4374;DHT22;2201;51.100;6.814;2023-04-06T09:21:10;12.90;74.40
4374;DHT22;2201;51.100;6.814;2023-04-06T09:23:37;13.00;74.60
4374;DHT22;2201;51.100;6.814;2023-04-06T09:26:10;13.00;73.60
4374;DHT22;2201;51.100;6.814;2023-04-06T09:28:45;13.00;73.40
4374;DHT22;2201;51.100;6.814;2023-04-06T09:31:12;13.10;74.10
4374;DHT22;2201;51.100;6.814;2023-04-06T09:33:42;13.30;73.70
4374;DHT22;2201;51.100;6.814;2023-04-06T09:36:09;13.50;73.70
4374;DHT22;2201;51.100;6.814;2023-04-06T09:38:51;13.50;72.40
4374;DHT22;2201;51.100;6.814;2023-04-06T09:41:25;13.50;72.30
4374;DHT22;2201;51.100;6.814;2023-04-06T09:44:01;13.60;72.40
4374;DHT22;2201;51.100;6.814;2023-04-06T09:46:31;13.50;71.60
4374;DHT22;2201;51.100;6.814;2023-04-06T09:49:00;13.50;72.80
4374;DHT22;2201;51.100;6.814;2023-04-06T09:51:30;13.60;72.80
4374;DHT22;2201;51.100;6.814;2023-04-06T09:53:57;13.80;72.40
4374;DHT22;2201;51.100;6.814;2023-04-06T09:56:30;13.90;71.90
4374;DHT22;2201;51.100;6.814;2023-04-06T09:59:02;14.00;71.70
4374;DHT22;2201;51.100;6.814;2023-04-06T10:01:32;14.20;72.30
4374;DHT22;2201;51.100;6.814;2023-04-06T10:04:08;14.30;71.60
4374;DHT22;2201;51.100;6.814;2023-04-06T10:06:37;14.50;71.30
4374;DHT22;2201;51.100;6.814;2023-04-06T10:09:06;14.80;72.30
4374;DHT22;2201;51.100;6.814;2023-04-06T10:14:58;15.40;71.00
4374;DHT22;2201;51.100;6.814;2023-04-06T10:17:26;15.60;70.50
4374;DHT22;2201;51.100;6.814;2023-04-06T10:20:04;15.50;70.10
4374;DHT22;2201;51.100;6.814;2023-04-06T10:22:39;15.50;70.80
4374;DHT22;2201;51.100;6.814;2023-04-06T10:25:08;15.50;71.40
4374;DHT22;2201;51.100;6.814;2023-04-06T10:27:36;15.60;71.10
4374;DHT22;2201;51.100;6.814;2023-04-06T10:30:07;15.70;71.00
4374;DHT22;2201;51.100;6.814;2023-04-06T10:32:35;15.50;70.80
4374;DHT22;2201;51.100;6.814;2023-04-06T10:35:08;15.70;70.90
4374;DHT22;2201;51.100;6.814;2023-04-06T10:37:52;15.90;70.90
4374;DHT22;2201;51.100;6.814;2023-04-06T10:40:23;16.30;70.70
4374;DHT22;2201;51.100;6.814;2023-04-06T10:42:54;16.30;70.60
4374;DHT22;2201;51.100;6.814;2023-04-06T10:45:25;16.40;69.20
4374;DHT22;2201;51.100;6.814;2023-04-06T10:47:53;16.40;68.50
4374;DHT22;2201;51.100;6.814;2023-04-06T10:50:20;16.20;68.70
4374;DHT22;2201;51.100;6.814;2023-04-06T10:52:47;16.00;69.20
4374;DHT22;2201;51.100;6.814;2023-04-06T10:55:30;15.90;69.70
4374;DHT22;2201;51.100;6.814;2023-04-06T10:57:59;15.90;70.50
4374;DHT22;2201;51.100;6.814;2023-04-06T11:00:27;16.00;70.50
4374;DHT22;2201;51.100;6.814;2023-04-06T11:02:59;16.20;70.00
4374;DHT22;2201;51.100;6.814;2023-04-06T11:05:27;16.30;69.60
4374;DHT22;2201;51.100;6.814;2023-04-06T11:07:54;16.30;69.10
4374;DHT22;2201;51.100;6.814;2023-04-06T11:10:21;16.30;69.20
4374;DHT22;2201;51.100;6.814;2023-04-06T11:12:53;16.20;68.30
4374;DHT22;2201;51.100;6.814;2023-04-06T11:15:20;16.20;69.30
4374;DHT22;2201;51.100;6.814;2023-04-06T11:17:49;16.20;69.30
4374;DHT22;2201;51.100;6.814;2023-04-06T11:20:16;16.30;69.10
4374;DHT22;2201;51.100;6.814;2023-04-06T11:22:51;16.20;69.50
4374;DHT22;2201;51.100;6.814;2023-04-06T11:25:18;16.20;70.70
4374;DHT22;2201;51.100;6.814;2023-04-06T11:27:46;16.30;70.40
4374;DHT22;2201;51.100;6.814;2023-04-06T11:30:14;16.30;69.70
4374;DHT22;2201;51.100;6.814;2023-04-06T11:32:42;16.30;69.80
4374;DHT22;2201;51.100;6.814;2023-04-06T11:35:19;16.30;70.30
4374;DHT22;2201;51.100;6.814;2023-04-06T11:37:47;16.30;71.20
4374;DHT22;2201;51.100;6.814;2023-04-06T11:40:14;16.30;70.80
4374;DHT22;2201;51.100;6.814;2023-04-06T11:42:41;16.30;71.50
4374;DHT22;2201;51.100;6.814;2023-04-06T11:45:15;16.30;71.80
4374;DHT22;2201;51.100;6.814;2023-04-06T11:47:42;16.40;71.10
4374;DHT22;2201;51.100;6.814;2023-04-06T11:50:10;16.40;71.20
4374;DHT22;2201;51.100;6.814;2023-04-06T11:52:39;16.50;70.60
4374;DHT22;2201;51.100;6.814;2023-04-06T11:55:12;16.60;70.70
4374;DHT22;2201;51.100;6.814;2023-04-06T11:57:42;16.60;69.30
4374;DHT22;2201;51.100;6.814;2023-04-06T12:00:10;16.60;69.40
4374;DHT22;2201;51.100;6.814;2023-04-06T12:02:38;16.60;69.20
4374;DHT22;2201;51.100;6.814;2023-04-06T12:05:06;16.60;69.90
4374;DHT22;2201;51.100;6.814;2023-04-06T12:07:33;16.60;69.80
4374;DHT22;2201;51.100;6.814;2023-04-06T12:10:03;16.70;69.90
4374;DHT22;2201;51.100;6.814;2023-04-06T12:12:30;16.80;69.60
4374;DHT22;2201;51.100;6.814;2023-04-06T12:14:57;16.80;69.30
4374;DHT22;2201;51.100;6.814;2023-04-06T12:17:25;16.80;69.80
4374;DHT22;2201;51.100;6.814;2023-04-06T12:19:55;16.80;69.60
4374;DHT22;2201;51.100;6.814;2023-04-06T12:22:22;16.80;70.00
4374;DHT22;2201;51.100;6.814;2023-04-06T12:24:49;16.80;70.40
4374;DHT22;2201;51.100;6.814;2023-04-06T12:27:17;16.70;70.20
4374;DHT22;2201;51.100;6.814;2023-04-06T12:29:44;16.70;70.10
4374;DHT22;2201;51.100;6.814;2023-04-06T12:32:11;16.60;70.00
4374;DHT22;2201;51.100;6.814;2023-04-06T12:34:38;16.60;70.10
4374;DHT22;2201;51.100;6.814;2023-04-06T12:37:06;16.60;69.90
4374;DHT22;2201;51.100;6.814;2023-04-06T12:39:33;16.60;70.20
4374;DHT22;2201;51.100;6.814;2023-04-06T12:42:01;16.50;71.50
4374;DHT22;2201;51.100;6.814;2023-04-06T12:44:29;16.50;70.90
4374;DHT22;2201;51.100;6.814;2023-04-06T12:46:56;16.40;71.30
4374;DHT22;2201;51.100;6.814;2023-04-06T12:49:23;16.40;71.40
4374;DHT22;2201;51.100;6.814;2023-04-06T12:51:50;16.40;72.10
4374;DHT22;2201;51.100;6.814;2023-04-06T12:54:17;16.40;71.50
4374;DHT22;2201;51.100;6.814;2023-04-06T12:56:43;16.30;71.60
4374;DHT22;2201;51.100;6.814;2023-04-06T12:59:11;16.30;70.30
4374;DHT22;2201;51.100;6.814;2023-04-06T13:01:39;16.30;70.90
4374;DHT22;2201;51.100;6.814;2023-04-06T13:04:06;16.20;71.90
4374;DHT22;2201;51.100;6.814;2023-04-06T13:06:33;16.20;71.30
4374;DHT22;2201;51.100;6.814;2023-04-06T13:09:00;16.20;71.60
4374;DHT22;2201;51.100;6.814;2023-04-06T13:11:26;16.20;72.10
4374;DHT22;2201;51.100;6.814;2023-04-06T13:13:54;16.10;71.50
4374;DHT22;2201;51.100;6.814;2023-04-06T13:16:21;16.10;72.60
4374;DHT22;2201;51.100;6.814;2023-04-06T13:18:49;15.90;72.90
4374;DHT22;2201;51.100;6.814;2023-04-06T13:21:16;15.80;73.40
4374;DHT22;2201;51.100;6.814;2023-04-06T13:23:44;15.70;74.10
4374;DHT22;2201;51.100;6.814;2023-04-06T13:26:11;15.50;74.70
4374;DHT22;2201;51.100;6.814;2023-04-06T13:28:38;15.50;75.00
4374;DHT22;2201;51.100;6.814;2023-04-06T13:31:06;15.50;75.00
4374;DHT22;2201;51.100;6.814;2023-04-06T13:33:34;15.60;75.50
4374;DHT22;2201;51.100;6.814;2023-04-06T13:36:02;15.50;75.80
4374;DHT22;2201;51.100;6.814;2023-04-06T13:38:29;15.40;75.10
4374;DHT22;2201;51.100;6.814;2023-04-06T13:40:57;15.10;76.80
4374;DHT22;2201;51.100;6.814;2023-04-06T13:43:24;15.00;77.20
4374;DHT22;2201;51.100;6.814;2023-04-06T13:45:53;14.90;76.80
4374;DHT22;2201;51.100;6.814;2023-04-06T13:48:21;14.80;76.50
4374;DHT22;2201;51.100;6.814;2023-04-06T13:50:48;14.80;78.20
4374;DHT22;2201;51.100;6.814;2023-04-06T13:53:16;14.80;77.70
4374;DHT22;2201;51.100;6.814;2023-04-06T13:55:43;14.90;78.70
4374;DHT22;2201;51.100;6.814;2023-04-06T13:58:18;14.90;76.10
4374;DHT22;2201;51.100;6.814;2023-04-06T14:00:44;14.70;75.50
4374;DHT22;2201;51.100;6.814;2023-04-06T14:03:11;14.40;76.30
4374;DHT22;2201;51.100;6.814;2023-04-06T14:05:38;14.30;76.80
4374;DHT22;2201;51.100;6.814;2023-04-06T14:08:05;14.20;77.60
4374;DHT22;2201;51.100;6.814;2023-04-06T14:10:36;14.10;78.20
4374;DHT22;2201;51.100;6.814;2023-04-06T14:13:03;14.00;78.30
4374;DHT22;2201;51.100;6.814;2023-04-06T14:15:30;13.80;79.20
4374;DHT22;2201;51.100;6.814;2023-04-06T14:17:57;13.60;79.50
4374;DHT22;2201;51.100;6.814;2023-04-06T14:20:24;13.50;79.80
4374;DHT22;2201;51.100;6.814;2023-04-06T14:22:51;13.40;80.60
4374;DHT22;2201;51.100;6.814;2023-04-06T14:25:20;13.30;82.30
4374;DHT22;2201;51.100;6.814;2023-04-06T14:27:48;13.20;83.70
4374;DHT22;2201;51.100;6.814;2023-04-06T14:30:15;13.10;84.30
4374;DHT22;2201;51.100;6.814;2023-04-06T14:32:42;13.10;85.50
4374;DHT22;2201;51.100;6.814;2023-04-06T14:35:09;13.10;86.20
4374;DHT22;2201;51.100;6.814;2023-04-06T14:37:36;13.10;87.40
4374;DHT22;2201;51.100;6.814;2023-04-06T14:40:04;13.10;88.80
4374;DHT22;2201;51.100;6.814;2023-04-06T14:42:31;13.00;90.20
4374;DHT22;2201;51.100;6.814;2023-04-06T14:45:00;12.80;91.60
4374;DHT22;2201;51.100;6.814;2023-04-06T14:47:27;12.60;92.90
4374;DHT22;2201;51.100;6.814;2023-04-06T14:49:54;12.50;94.10
4374;DHT22;2201;51.100;6.814;2023-04-06T14:52:20;12.30;95.10
4374;DHT22;2201;51.100;6.814;2023-04-06T14:54:47;12.10;95.30
4374;DHT22;2201;51.100;6.814;2023-04-06T14:57:14;12.00;97.50
4374;DHT22;2201;51.100;6.814;2023-04-06T14:59:44;11.90;98.20
4374;DHT22;2201;51.100;6.814;2023-04-06T15:02:29;11.90;98.20
4374;DHT22;2201;51.100;6.814;2023-04-06T15:04:57;12.00;98.20
4374;DHT22;2201;51.100;6.814;2023-04-06T15:07:25;11.90;98.20
4374;DHT22;2201;51.100;6.814;2023-04-06T15:09:55;11.80;98.20
4374;DHT22;2201;51.100;6.814;2023-04-06T15:12:28;11.70;98.20
4374;DHT22;2201;51.100;6.814;2023-04-06T15:14:56;11.60;98.20
4374;DHT22;2201;51.100;6.814;2023-04-06T15:17:23;11.50;98.20
4374;DHT22;2201;51.100;6.814;2023-04-06T15:19:52;11.30;98.20
4374;DHT22;2201;51.100;6.814;2023-04-06T15:22:19;11.10;98.20
4374;DHT22;2201;51.100;6.814;2023-04-06T15:24:46;11.00;98.20
4374;DHT22;2201;51.100;6.814;2023-04-06T15:27:13;10.90;98.20
4374;DHT22;2201;51.100;6.814;2023-04-06T15:29:40;10.70;98.20
4374;DHT22;2201;51.100;6.814;2023-04-06T15:32:07;10.70;98.20
4374;DHT22;2201;51.100;6.814;2023-04-06T15:34:34;10.70;98.20
4374;DHT22;2201;51.100;6.814;2023-04-06T15:37:05;10.80;98.20
4374;DHT22;2201;51.100;6.814;2023-04-06T15:39:32;10.80;98.20
4374;DHT22;2201;51.100;6.814;2023-04-06T15:41:59;10.80;98.20
4374;DHT22;2201;51.100;6.814;2023-04-06T15:44:26;10.80;98.20
4374;DHT22;2201;51.100;6.814;2023-04-06T15:46:53;10.80;98.20
4374;DHT22;2201;51.100;6.814;2023-04-06T15:49:20;10.70;98.20
4374;DHT22;2201;51.100;6.814;2023-04-06T15:51:47;10.60;98.20
4374;DHT22;2201;51.100;6.814;2023-04-06T15:54:25;10.40;98.20
4374;DHT22;2201;51.100;6.814;2023-04-06T15:56:52;10.40;98.20
4374;DHT22;2201;51.100;6.814;2023-04-06T15:59:19;10.30;98.20
4374;DHT22;2201;51.100;6.814;2023-04-06T16:01:46;10.20;98.20
4374;DHT22;2201;51.100;6.814;2023-04-06T16:04:13;10.10;98.20
4374;DHT22;2201;51.100;6.814;2023-04-06T16:06:40;10.10;98.20
4374;DHT22;2201;51.100;6.814;2023-04-06T16:09:07;10.00;98.20
4374;DHT22;2201;51.100;6.814;2023-04-06T16:11:35;9.90;98.20
4374;DHT22;2201;51.100;6.814;2023-04-06T16:14:02;9.80;98.20
4374;DHT22;2201;51.100;6.814;2023-04-06T16:16:30;9.70;98.20
4374;DHT22;2201;51.100;6.814;2023-04-06T16:18:57;9.70;98.20